Yvonne K. — PBLX — position and weather

sailwx.info

Track history (hours):
 
Tides and Currents Weather Stations Pressure Air Temp Water Temp Dewpoint Dewpoint Depression Visibility Wind Speed Wind Dir Waves Ship Positions

Yvonne K.

Last reported at 2016-Aug-26 13:33 UTC. Time now 2016-Aug-26 13:45 UTC.
Position N 48°50' W 005°24'.

Length 90 m; draft 5.3 m.

Type: Cargo ship. MMSI: 244948000.

Date/timePositionNaut miles runAvg speedWind from/ knotsBaromVisibWave heightAir tempDewpointWater temp
2016-Aug-26 13:33N 48°50' W 005°24'18 8.8
2016-Aug-26 11:29N 48°36' W 005°42'8 8.7
2016-Aug-26 10:33N 48°28' W 005°45'19 9.4
2016-Aug-26 08:33N 48°11' W 005°32'10 9.9
2016-Aug-26 07:33N 48°03' W 005°26'1010.0
2016-Aug-26 06:33N 47°54' W 005°19'17 8.7
2016-Aug-26 04:33N 47°38' W 005°07'9 8.6
2016-Aug-26 03:34N 47°31' W 005°01'19 8.3
2016-Aug-26 01:12N 47°14' W 004°48'22 7.9
2016-Aug-25 22:26N 46°54' W 004°33'16 8.0
2016-Aug-25 20:27N 46°40' W 004°22'8 8.4
2016-Aug-25 19:33N 46°34' W 004°17'10 8.3
2016-Aug-25 18:18N 46°24' W 004°10'6 8.1
2016-Aug-25 17:33N 46°19' W 004°06'9 8.5
2016-Aug-25 16:33N 46°11' W 004°01'9 8.9
2016-Aug-25 15:33N 46°03' W 003°55'12 8.8
2016-Aug-25 14:14N 45°53' W 003°47'6 8.4
2016-Aug-25 13:33N 45°48' W 003°43'9 8.3
2016-Aug-25 12:31N 45°40' W 003°38'19 8.6
2016-Aug-25 10:15N 45°23' W 003°25'  
2016-Aug-19 07:33N 47°59' W 005°25'129 6.4
2016-Aug-18 11:21N 49°44' W 003°31'8 9.8
2016-Aug-18 10:33N 49°48' W 003°20'12 8.4
2016-Aug-18 09:08N 49°54' W 003°04'4 7.3
2016-Aug-18 08:33N 49°56' W 002°58'7 6.6
2016-Aug-18 07:31N 49°59' W 002°49'8110.1
2016-Aug-17 23:32N 50°23' W 000°48'9 9.3
2016-Aug-17 22:31N 50°26' W 000°34'8 8.3
2016-Aug-17 21:33N 50°28' W 000°22'7 7.5
2016-Aug-17 20:33N 50°30' W 000°11'7 7.2
2016-Aug-17 19:33N 50°32' E 000°00'8 7.7
2016-Aug-17 18:33N 50°35' E 000°12'9 9.1
2016-Aug-17 17:33N 50°37' E 000°25'1110.2
2016-Aug-17 16:31N 50°42' E 000°41'2110.4
2016-Aug-17 14:30N 50°54' E 001°08'11 8.9
2016-Aug-17 13:17N 51°01' E 001°21'6 7.6
2016-Aug-17 12:33N 51°04' E 001°27'7 6.9
2016-Aug-17 11:33N 51°09' E 001°36'7 7.3
2016-Aug-17 10:34N 51°14' E 001°45'9 8.7
2016-Aug-17 09:33N 51°21' E 001°53'1010.2
2016-Aug-17 08:33N 51°29' E 002°03'1211.1
2016-Aug-17 07:31N 51°37' E 002°15'1111.2
2016-Aug-17 06:33N 51°45' E 002°27'24 9.6
2016-Aug-17 04:04N 52°01' E 002°56'5 9.1
2016-Aug-17 03:33N 52°01' E 003°03'20 8.6
2016-Aug-17 01:17N 52°03' E 003°35'6 8.4
2016-Aug-17 00:33N 52°03' E 003°45'8 8.2
2016-Aug-16 23:33N 52°01' E 003°58'1010.1
2016-Aug-16 22:33N 51°56' E 004°12'8 7.8
2016-Aug-16 21:32N 51°55' E 004°25'0 0.0
2016-Aug-16 20:33N 51°55' E 004°25'0 0.0
2016-Aug-16 19:33N 51°55' E 004°25'0 0.0
2016-Aug-16 18:33N 51°55' E 004°25'0 0.0
2016-Aug-16 17:31N 51°55' E 004°25'0 0.0
2016-Aug-16 16:33N 51°55' E 004°25'0 0.0
2016-Aug-16 15:30N 51°55' E 004°25'0 0.0
2016-Aug-16 14:30N 51°55' E 004°25'0 0.0
2016-Aug-16 13:33N 51°55' E 004°25'0 0.0
2016-Aug-16 12:33N 51°55' E 004°25'0 0.0
2016-Aug-16 11:33N 51°55' E 004°25'  
Track history (hours):
 
Tides and Currents Weather Stations Pressure Air Temp Water Temp Dewpoint Dewpoint Depression Visibility Wind Speed Wind Dir Waves Ship Positions

Yvonne K.

Last reported at 2016-Aug-26 13:33 UTC. Time now 2016-Aug-26 13:45 UTC.
Position N 48°50' W 005°24'.

Length 90 m; draft 5.3 m.

Type: Cargo ship. MMSI: 244948000.

Date/timePositionNaut miles runAvg speedWind from/ knotsBaromVisibWave heightAir tempDewpointWater temp
2016-Aug-26 13:33N 48°50' W 005°24'18 8.8
2016-Aug-26 11:29N 48°36' W 005°42'8 8.7
2016-Aug-26 10:33N 48°28' W 005°45'19 9.4
2016-Aug-26 08:33N 48°11' W 005°32'10 9.9
2016-Aug-26 07:33N 48°03' W 005°26'1010.0
2016-Aug-26 06:33N 47°54' W 005°19'17 8.7
2016-Aug-26 04:33N 47°38' W 005°07'9 8.6
2016-Aug-26 03:34N 47°31' W 005°01'19 8.3
2016-Aug-26 01:12N 47°14' W 004°48'22 7.9
2016-Aug-25 22:26N 46°54' W 004°33'16 8.0
2016-Aug-25 20:27N 46°40' W 004°22'8 8.4
2016-Aug-25 19:33N 46°34' W 004°17'10 8.3
2016-Aug-25 18:18N 46°24' W 004°10'6 8.1
2016-Aug-25 17:33N 46°19' W 004°06'9 8.5
2016-Aug-25 16:33N 46°11' W 004°01'9 8.9
2016-Aug-25 15:33N 46°03' W 003°55'12 8.8
2016-Aug-25 14:14N 45°53' W 003°47'6 8.4
2016-Aug-25 13:33N 45°48' W 003°43'9 8.3
2016-Aug-25 12:31N 45°40' W 003°38'19 8.6
2016-Aug-25 10:15N 45°23' W 003°25'  
2016-Aug-19 07:33N 47°59' W 005°25'129 6.4
2016-Aug-18 11:21N 49°44' W 003°31'8 9.8
2016-Aug-18 10:33N 49°48' W 003°20'12 8.4
2016-Aug-18 09:08N 49°54' W 003°04'4 7.3
2016-Aug-18 08:33N 49°56' W 002°58'7 6.6
2016-Aug-18 07:31N 49°59' W 002°49'8110.1
2016-Aug-17 23:32N 50°23' W 000°48'9 9.3
2016-Aug-17 22:31N 50°26' W 000°34'8 8.3
2016-Aug-17 21:33N 50°28' W 000°22'7 7.5
2016-Aug-17 20:33N 50°30' W 000°11'7 7.2
2016-Aug-17 19:33N 50°32' E 000°00'8 7.7
2016-Aug-17 18:33N 50°35' E 000°12'9 9.1
2016-Aug-17 17:33N 50°37' E 000°25'1110.2
2016-Aug-17 16:31N 50°42' E 000°41'2110.4
2016-Aug-17 14:30N 50°54' E 001°08'11 8.9
2016-Aug-17 13:17N 51°01' E 001°21'6 7.6
2016-Aug-17 12:33N 51°04' E 001°27'7 6.9
2016-Aug-17 11:33N 51°09' E 001°36'7 7.3
2016-Aug-17 10:34N 51°14' E 001°45'9 8.7
2016-Aug-17 09:33N 51°21' E 001°53'1010.2
2016-Aug-17 08:33N 51°29' E 002°03'1211.1
2016-Aug-17 07:31N 51°37' E 002°15'1111.2
2016-Aug-17 06:33N 51°45' E 002°27'24 9.6
2016-Aug-17 04:04N 52°01' E 002°56'5 9.1
2016-Aug-17 03:33N 52°01' E 003°03'20 8.6
2016-Aug-17 01:17N 52°03' E 003°35'6 8.4
2016-Aug-17 00:33N 52°03' E 003°45'8 8.2
2016-Aug-16 23:33N 52°01' E 003°58'1010.1
2016-Aug-16 22:33N 51°56' E 004°12'8 7.8
2016-Aug-16 21:32N 51°55' E 004°25'0 0.0
2016-Aug-16 20:33N 51°55' E 004°25'0 0.0
2016-Aug-16 19:33N 51°55' E 004°25'0 0.0
2016-Aug-16 18:33N 51°55' E 004°25'0 0.0
2016-Aug-16 17:31N 51°55' E 004°25'0 0.0
2016-Aug-16 16:33N 51°55' E 004°25'0 0.0
2016-Aug-16 15:30N 51°55' E 004°25'0 0.0
2016-Aug-16 14:30N 51°55' E 004°25'0 0.0
2016-Aug-16 13:33N 51°55' E 004°25'0 0.0
2016-Aug-16 12:33N 51°55' E 004°25'0 0.0
2016-Aug-16 11:33N 51°55' E 004°25'  

Dump ship's entire track history